createdAt,value
2023-07-07T00:00:25.029Z,8.30
2023-07-07T00:02:52.038Z,8.05
2023-07-07T00:05:19.738Z,7.65
2023-07-07T00:07:46.760Z,7.55
2023-07-07T00:10:13.695Z,9.82
2023-07-07T00:12:40.631Z,8.05
2023-07-07T00:15:08.603Z,6.95
2023-07-07T00:17:35.628Z,9.60
2023-07-07T00:20:08.892Z,14.90
2023-07-07T00:22:36.737Z,7.55
2023-07-07T00:25:05.552Z,7.30
2023-07-07T00:27:32.702Z,7.82
2023-07-07T00:30:01.461Z,7.40
2023-07-07T00:32:31.205Z,6.53
2023-07-07T00:37:25.129Z,7.30
2023-07-07T00:39:52.322Z,9.27
2023-07-07T00:42:19.344Z,8.20
2023-07-07T00:45:16.588Z,7.60
2023-07-07T00:47:55.700Z,7.97
2023-07-07T00:50:27.988Z,8.43
2023-07-07T00:52:54.946Z,6.72
2023-07-07T00:55:43.641Z,5.90
2023-07-07T00:58:17.779Z,7.38
2023-07-07T01:00:52.931Z,6.72
2023-07-07T01:03:26.094Z,7.00
2023-07-07T01:05:57.238Z,6.75
2023-07-07T01:08:25.429Z,9.25
2023-07-07T01:10:52.387Z,9.35
2023-07-07T01:13:20.224Z,10.02
2023-07-07T01:16:07.079Z,6.95
2023-07-07T01:18:41.354Z,7.32
2023-07-07T01:21:30.709Z,6.28
2023-07-07T01:24:28.629Z,6.15
2023-07-07T01:27:55.720Z,10.77
2023-07-07T01:30:41.922Z,7.22
2023-07-07T01:33:15.534Z,6.47
2023-07-07T01:35:42.509Z,6.63
2023-07-07T01:38:43.946Z,6.38
2023-07-07T01:41:42.394Z,7.20
2023-07-07T01:44:40.282Z,7.72
2023-07-07T01:47:18.580Z,8.20
2023-07-07T01:49:56.857Z,7.60
2023-07-07T01:52:38.097Z,9.02
2023-07-07T01:55:22.116Z,6.82
2023-07-07T01:57:53.789Z,8.20
2023-07-07T02:00:22.461Z,9.75
2023-07-07T02:02:51.916Z,6.60
2023-07-07T02:05:19.170Z,7.15
2023-07-07T02:07:46.362Z,7.22
2023-07-07T02:10:13.480Z,7.70
2023-07-07T02:12:41.524Z,5.47
2023-07-07T02:15:09.195Z,7.93
2023-07-07T02:17:36.348Z,7.30
2023-07-07T02:20:04.703Z,9.10
2023-07-07T02:22:31.657Z,8.07
2023-07-07T02:24:58.710Z,8.77
2023-07-07T02:27:25.664Z,8.38
2023-07-07T02:29:52.627Z,7.50
2023-07-07T02:32:19.521Z,7.22
2023-07-07T02:34:48.394Z,6.82
2023-07-07T02:37:19.817Z,6.75
2023-07-07T02:39:47.113Z,6.25
2023-07-07T02:42:15.506Z,6.90
2023-07-07T02:44:42.743Z,7.03
2023-07-07T02:47:10.789Z,6.75
2023-07-07T02:49:38.084Z,6.70
2023-07-07T02:52:07.510Z,5.72
2023-07-07T02:54:35.980Z,5.85
2023-07-07T02:57:04.335Z,5.85
2023-07-07T02:59:31.297Z,8.07
2023-07-07T03:01:58.284Z,6.32
2023-07-07T03:04:26.018Z,6.50
2023-07-07T03:06:53.440Z,6.70
2023-07-07T03:09:20.712Z,7.18
2023-07-07T03:11:48.213Z,6.00
2023-07-07T03:14:23.026Z,6.22
2023-07-07T03:16:52.713Z,6.57
2023-07-07T03:19:25.842Z,6.93
2023-07-07T03:22:03.266Z,8.02
2023-07-07T03:24:35.593Z,7.32
2023-07-07T03:27:10.199Z,7.25
2023-07-07T03:29:41.637Z,7.75
2023-07-07T03:32:09.059Z,7.40
2023-07-07T03:34:42.172Z,10.57
2023-07-07T03:37:11.469Z,8.50
2023-07-07T03:39:38.663Z,9.15
2023-07-07T03:42:09.833Z,8.40
2023-07-07T03:44:37.407Z,7.82
2023-07-07T03:47:04.705Z,8.40
2023-07-07T03:49:32.379Z,8.57
2023-07-07T03:51:59.915Z,9.57
2023-07-07T03:54:27.269Z,7.93
2023-07-07T03:56:54.293Z,7.80
2023-07-07T03:59:22.139Z,8.23
2023-07-07T04:01:50.645Z,8.38
2023-07-07T04:04:17.818Z,8.38
2023-07-07T04:06:44.939Z,7.93
2023-07-07T04:09:11.866Z,6.82
2023-07-07T04:11:38.826Z,7.85
2023-07-07T04:14:05.983Z,7.22
2023-07-07T04:16:33.101Z,7.13
2023-07-07T04:19:00.070Z,8.30
2023-07-07T04:21:31.092Z,7.78
2023-07-07T04:24:00.459Z,8.38
2023-07-07T04:26:30.160Z,7.47
2023-07-07T04:29:00.333Z,8.27
2023-07-07T04:31:29.782Z,8.10
2023-07-07T04:33:56.945Z,9.32
2023-07-07T04:36:24.695Z,8.02
2023-07-07T04:38:52.024Z,10.27
2023-07-07T04:41:23.941Z,7.88
2023-07-07T04:43:57.504Z,7.88
2023-07-07T04:46:29.787Z,8.32
2023-07-07T04:48:56.807Z,8.63
2023-07-07T04:51:24.167Z,8.52
2023-07-07T04:53:51.282Z,8.02
2023-07-07T04:56:22.307Z,9.73
2023-07-07T04:58:51.904Z,8.25
2023-07-07T05:01:27.532Z,7.55
2023-07-07T05:03:57.665Z,8.95
2023-07-07T05:06:26.801Z,7.70
2023-07-07T05:08:54.377Z,7.28
2023-07-07T05:11:25.603Z,10.55
2023-07-07T05:13:53.766Z,9.00
2023-07-07T05:16:24.549Z,9.35
2023-07-07T05:18:51.732Z,9.00
2023-07-07T05:21:21.758Z,13.48
2023-07-07T05:23:48.930Z,7.75
2023-07-07T05:26:15.880Z,8.57
2023-07-07T05:28:42.877Z,8.05
2023-07-07T05:31:10.157Z,9.20
2023-07-07T05:33:39.902Z,8.63
2023-07-07T05:38:39.414Z,9.57
2023-07-07T05:41:06.929Z,8.95
2023-07-07T05:43:35.423Z,14.32
2023-07-07T05:46:13.282Z,11.40
2023-07-07T05:48:41.418Z,9.38
2023-07-07T05:51:13.495Z,8.02
2023-07-07T05:53:42.041Z,6.97
2023-07-07T05:56:16.610Z,7.72
2023-07-07T05:58:43.868Z,11.30
2023-07-07T06:01:14.443Z,10.80
2023-07-07T06:03:42.646Z,8.77
2023-07-07T06:06:09.787Z,8.18
2023-07-07T06:08:36.773Z,8.63
2023-07-07T06:11:03.907Z,7.85
2023-07-07T06:13:30.965Z,10.35
2023-07-07T06:15:58.732Z,8.68
2023-07-07T06:18:25.889Z,8.63
2023-07-07T06:20:57.372Z,8.68
2023-07-07T06:23:24.889Z,9.10
2023-07-07T06:25:52.159Z,7.82
2023-07-07T06:28:19.366Z,7.95
2023-07-07T06:30:51.444Z,10.20
2023-07-07T06:33:21.179Z,8.18
2023-07-07T06:35:52.345Z,9.30
2023-07-07T06:38:19.322Z,9.27
2023-07-07T06:40:49.662Z,8.15
2023-07-07T06:43:20.292Z,10.40
2023-07-07T06:45:56.423Z,13.23
2023-07-07T06:48:23.557Z,7.55
2023-07-07T06:50:50.585Z,11.57
2023-07-07T06:53:17.560Z,9.48
2023-07-07T06:55:44.737Z,9.75
2023-07-07T06:58:13.837Z,8.32
2023-07-07T07:00:42.874Z,8.70
2023-07-07T07:03:09.986Z,7.75
2023-07-07T07:05:37.064Z,7.57
2023-07-07T07:08:04.323Z,7.68
2023-07-07T07:10:31.268Z,7.43
2023-07-07T07:12:58.234Z,9.30
2023-07-07T07:15:25.238Z,8.63
2023-07-07T07:17:52.253Z,7.65
2023-07-07T07:20:19.405Z,8.27
2023-07-07T07:22:46.400Z,8.25
2023-07-07T07:25:13.361Z,7.22
2023-07-07T07:27:40.320Z,7.43
2023-07-07T07:30:09.153Z,7.35
2023-07-07T07:32:37.196Z,6.38
2023-07-07T07:35:05.093Z,7.35
2023-07-07T07:37:32.234Z,9.43
2023-07-07T07:39:59.212Z,7.07
2023-07-07T07:42:26.138Z,7.32
2023-07-07T07:44:53.072Z,7.43
2023-07-07T07:47:21.276Z,6.85
2023-07-07T07:49:49.506Z,6.75
2023-07-07T07:52:17.634Z,6.63
2023-07-07T07:54:45.219Z,6.57
2023-07-07T07:57:12.338Z,7.07
2023-07-07T07:59:39.328Z,6.88
2023-07-07T08:02:10.243Z,7.05
2023-07-07T08:04:37.277Z,6.25
2023-07-07T08:07:04.895Z,6.35
2023-07-07T08:09:31.883Z,6.78
2023-07-07T08:12:01.464Z,7.00
2023-07-07T08:14:33.443Z,6.85
2023-07-07T08:17:19.128Z,8.60
2023-07-07T08:19:49.189Z,7.45
2023-07-07T08:22:22.473Z,7.38
2023-07-07T08:24:54.684Z,8.25
2023-07-07T08:29:55.281Z,8.57
2023-07-07T08:32:24.050Z,8.02
2023-07-07T08:34:55.016Z,8.98
2023-07-07T08:37:26.707Z,7.55
2023-07-07T08:39:54.423Z,7.95
2023-07-07T08:42:42.116Z,8.60
2023-07-07T08:45:17.221Z,7.95
2023-07-07T08:48:03.105Z,7.88
2023-07-07T08:50:43.257Z,9.38
2023-07-07T08:54:01.014Z,8.65
2023-07-07T08:57:09.982Z,8.77
2023-07-07T08:59:57.357Z,7.82
2023-07-07T09:02:55.357Z,8.75
2023-07-07T09:05:41.290Z,8.13
2023-07-07T09:08:28.192Z,7.97
2023-07-07T09:11:25.913Z,8.38
2023-07-07T09:13:58.017Z,7.82
2023-07-07T09:16:39.919Z,7.93
2023-07-07T09:19:17.439Z,9.40
2023-07-07T09:21:58.284Z,9.63
2023-07-07T09:24:47.096Z,8.73
2023-07-07T09:27:29.267Z,9.00
2023-07-07T09:30:25.231Z,9.13
2023-07-07T09:32:52.334Z,8.32
2023-07-07T09:35:21.705Z,8.15
2023-07-07T09:38:23.060Z,9.02
2023-07-07T09:41:34.905Z,8.90
2023-07-07T09:44:16.083Z,9.55
2023-07-07T09:47:42.176Z,7.68
2023-07-07T09:50:28.120Z,8.40
2023-07-07T09:53:48.171Z,8.95
2023-07-07T09:56:26.910Z,7.25
2023-07-07T09:59:11.969Z,7.63
2023-07-07T10:01:43.548Z,8.68
2023-07-07T10:04:16.770Z,8.35
2023-07-07T10:07:03.940Z,8.63
2023-07-07T10:09:32.452Z,8.73
2023-07-07T10:14:32.458Z,9.32
2023-07-07T10:17:16.031Z,8.82
2023-07-07T10:19:56.538Z,9.18
2023-07-07T10:22:23.737Z,8.25
2023-07-07T10:24:51.146Z,8.20
2023-07-07T10:27:24.986Z,7.82
2023-07-07T10:29:57.428Z,7.80
2023-07-07T10:32:25.243Z,8.15
2023-07-07T10:34:59.819Z,8.18
2023-07-07T10:37:32.040Z,8.52
2023-07-07T10:40:01.689Z,8.85
2023-07-07T10:42:30.760Z,8.27
2023-07-07T10:47:31.301Z,8.93
2023-07-07T10:50:00.100Z,9.20
2023-07-07T10:56:07.230Z,8.32
2023-07-07T10:59:03.587Z,8.38
2023-07-07T11:02:18.053Z,8.88
2023-07-07T11:05:17.521Z,9.38
2023-07-07T11:07:53.607Z,8.77
2023-07-07T11:10:51.588Z,8.80
2023-07-07T11:13:33.383Z,9.40
2023-07-07T11:16:38.686Z,8.57
2023-07-07T11:20:09.082Z,9.45
2023-07-07T11:23:04.755Z,9.63
2023-07-07T11:26:01.095Z,9.52
2023-07-07T11:28:56.533Z,9.05
2023-07-07T11:31:37.305Z,8.55
2023-07-07T11:34:56.007Z,8.75
2023-07-07T11:37:48.933Z,8.73
2023-07-07T11:40:47.245Z,8.18
2023-07-07T11:43:51.456Z,9.23
2023-07-07T11:46:40.602Z,8.77
2023-07-07T11:49:44.202Z,8.45
2023-07-07T11:52:39.886Z,8.13
2023-07-07T11:55:38.533Z,8.45
2023-07-07T11:58:23.125Z,10.23
2023-07-07T12:01:06.089Z,8.30
2023-07-07T12:03:46.416Z,7.78
2023-07-07T12:06:31.073Z,8.35
2023-07-07T12:09:12.354Z,9.15
2023-07-07T12:11:49.904Z,8.57
2023-07-07T12:14:52.315Z,8.70
2023-07-07T12:17:37.787Z,9.43
2023-07-07T12:20:34.350Z,8.73
2023-07-07T12:23:05.523Z,8.60
2023-07-07T12:25:34.203Z,8.95
2023-07-07T12:28:01.987Z,9.32
2023-07-07T12:30:47.676Z,8.75
2023-07-07T12:33:17.922Z,9.13
2023-07-07T12:35:58.335Z,9.43
2023-07-07T12:38:30.080Z,8.80
2023-07-07T12:41:23.871Z,9.10
2023-07-07T12:44:03.857Z,9.30
2023-07-07T12:46:34.628Z,8.52
2023-07-07T12:49:17.498Z,9.75
2023-07-07T12:51:44.892Z,9.60
2023-07-07T12:54:34.309Z,9.20
2023-07-07T12:57:05.672Z,8.57
2023-07-07T12:59:39.575Z,9.07
2023-07-07T13:02:24.170Z,9.65
2023-07-07T13:05:02.094Z,9.40
2023-07-07T13:07:31.949Z,9.07
2023-07-07T13:10:03.627Z,9.18
2023-07-07T13:12:47.882Z,9.93
2023-07-07T13:15:27.676Z,7.90
2023-07-07T13:17:57.092Z,9.18
2023-07-07T13:20:26.318Z,9.15
2023-07-07T13:23:15.195Z,10.05
2023-07-07T13:25:47.436Z,9.25
2023-07-07T13:28:17.442Z,9.52
2023-07-07T13:30:49.623Z,8.85
2023-07-07T13:33:19.952Z,8.43
2023-07-07T13:35:57.745Z,9.77
2023-07-07T13:38:29.666Z,9.30
2023-07-07T13:40:57.719Z,9.52
2023-07-07T13:43:41.048Z,8.95
2023-07-07T13:46:26.190Z,8.90
2023-07-07T13:49:03.765Z,8.77
2023-07-07T13:51:40.900Z,9.32
2023-07-07T13:54:13.294Z,8.60
2023-07-07T13:57:03.387Z,9.35
2023-07-07T13:59:31.422Z,9.45
2023-07-07T14:01:59.273Z,9.57
2023-07-07T14:04:36.740Z,10.25
2023-07-07T14:07:04.431Z,8.43
2023-07-07T14:09:45.281Z,9.20
2023-07-07T14:12:16.521Z,9.38
2023-07-07T14:14:48.349Z,9.43
2023-07-07T14:17:38.586Z,8.20
2023-07-07T14:20:20.646Z,9.00
2023-07-07T14:22:48.270Z,8.55
2023-07-07T14:25:19.562Z,7.57
2023-07-07T14:27:46.807Z,9.38
2023-07-07T14:30:20.403Z,8.63
2023-07-07T14:32:49.814Z,8.93
2023-07-07T14:35:24.209Z,8.60
2023-07-07T14:38:05.772Z,9.50
2023-07-07T14:40:45.300Z,9.82
2023-07-07T14:43:25.759Z,8.98
2023-07-07T14:46:01.992Z,7.90
2023-07-07T14:48:50.018Z,8.75
2023-07-07T14:51:29.677Z,9.15
2023-07-07T14:54:01.097Z,9.55
2023-07-07T14:56:37.439Z,8.48
2023-07-07T14:59:25.270Z,8.68
2023-07-07T15:02:23.128Z,9.90
2023-07-07T15:04:50.176Z,8.52
2023-07-07T15:07:28.540Z,8.48
2023-07-07T15:09:59.956Z,8.85
2023-07-07T15:12:32.207Z,9.10
2023-07-07T15:14:59.871Z,8.98
2023-07-07T15:17:27.336Z,9.60
2023-07-07T15:19:54.684Z,9.13
2023-07-07T15:22:22.584Z,8.80
2023-07-07T15:24:51.765Z,8.73
2023-07-07T15:27:18.720Z,8.82
2023-07-07T15:29:45.640Z,9.85
2023-07-07T15:32:14.022Z,9.00
2023-07-07T15:34:41.159Z,8.68
2023-07-07T15:37:14.333Z,8.70
2023-07-07T15:39:41.363Z,9.63
2023-07-07T15:42:13.042Z,8.50
2023-07-07T15:44:40.641Z,8.60
2023-07-07T15:47:22.625Z,9.27
2023-07-07T15:49:49.878Z,8.48
2023-07-07T15:52:17.918Z,9.13
2023-07-07T15:54:45.724Z,8.27
2023-07-07T15:57:13.904Z,8.85
2023-07-07T15:59:41.900Z,8.40
2023-07-07T16:02:20.639Z,9.35
2023-07-07T16:04:48.276Z,8.20
2023-07-07T16:07:16.326Z,8.50
2023-07-07T16:09:43.558Z,9.60
2023-07-07T16:12:18.104Z,9.05
2023-07-07T16:14:45.690Z,8.60
2023-07-07T16:17:16.064Z,8.50
2023-07-07T16:19:43.601Z,8.32
2023-07-07T16:22:13.130Z,8.63
2023-07-07T16:24:40.894Z,9.43
2023-07-07T16:27:19.039Z,8.63
2023-07-07T16:29:49.249Z,8.57
2023-07-07T16:32:16.214Z,8.27
2023-07-07T16:34:43.210Z,8.15
2023-07-07T16:37:14.244Z,8.48
2023-07-07T16:39:41.215Z,8.15
2023-07-07T16:42:15.318Z,8.25
2023-07-07T16:44:42.295Z,8.77
2023-07-07T16:47:12.888Z,8.35
2023-07-07T16:49:39.892Z,8.93
2023-07-07T16:52:08.322Z,9.07
2023-07-07T16:54:35.436Z,8.63
2023-07-07T16:57:02.432Z,8.63
2023-07-07T16:59:29.363Z,8.68
2023-07-07T17:01:56.428Z,8.90
2023-07-07T17:04:25.560Z,7.72
2023-07-07T17:06:52.913Z,7.97
2023-07-07T17:09:22.679Z,8.82
2023-07-07T17:11:49.715Z,8.90
2023-07-07T17:14:16.704Z,9.00
2023-07-07T17:16:43.828Z,8.38
2023-07-07T17:19:23.055Z,8.27
2023-07-07T17:21:51.148Z,8.93
2023-07-07T17:24:19.141Z,8.93
2023-07-07T17:26:49.470Z,9.00
2023-07-07T17:29:17.749Z,8.35
2023-07-07T17:31:45.492Z,8.75
2023-07-07T17:34:13.934Z,8.63
2023-07-07T17:36:42.004Z,9.02
2023-07-07T17:39:17.324Z,9.05
2023-07-07T17:41:44.642Z,8.38
2023-07-07T17:44:12.336Z,11.45
2023-07-07T17:46:40.064Z,8.95
2023-07-07T17:49:18.587Z,8.90
2023-07-07T17:51:47.779Z,8.85
2023-07-07T17:54:16.153Z,9.25
2023-07-07T17:56:44.205Z,8.40
2023-07-07T17:59:20.677Z,8.90
2023-07-07T18:01:49.487Z,8.57
2023-07-07T18:04:16.578Z,10.02
2023-07-07T18:06:49.206Z,9.20
2023-07-07T18:09:16.560Z,9.80
2023-07-07T18:11:43.552Z,8.68
2023-07-07T18:14:10.751Z,8.75
2023-07-07T18:16:48.677Z,9.25
2023-07-07T18:20:00.550Z,8.80
2023-07-07T18:22:13.797Z,8.43
2023-07-07T18:24:40.929Z,7.72
2023-07-07T18:27:10.811Z,8.77
2023-07-07T18:29:37.803Z,9.70
2023-07-07T18:32:11.317Z,8.68
2023-07-07T18:34:38.646Z,9.48
2023-07-07T18:37:15.272Z,9.63
2023-07-07T18:39:42.244Z,9.13
2023-07-07T18:42:10.828Z,9.00
2023-07-07T18:44:38.117Z,8.65
2023-07-07T18:47:14.007Z,9.27
2023-07-07T18:49:41.133Z,8.40
2023-07-07T18:52:09.271Z,8.85
2023-07-07T18:54:36.174Z,9.38
2023-07-07T18:57:03.150Z,8.52
2023-07-07T18:59:30.099Z,8.77
2023-07-07T19:01:57.057Z,8.32
2023-07-07T19:04:24.082Z,9.07
2023-07-07T19:06:51.045Z,7.53
2023-07-07T19:09:24.968Z,8.30
2023-07-07T19:11:54.666Z,8.73
2023-07-07T19:14:21.693Z,8.50
2023-07-07T19:16:51.545Z,8.70
2023-07-07T19:19:25.002Z,8.20
2023-07-07T19:21:51.980Z,9.02
2023-07-07T19:24:19.171Z,8.68
2023-07-07T19:26:53.215Z,8.10
2023-07-07T19:29:20.235Z,9.20
2023-07-07T19:31:47.367Z,8.43
2023-07-07T19:34:14.347Z,9.15
2023-07-07T19:36:43.357Z,7.93
2023-07-07T19:41:46.730Z,7.75
2023-07-07T19:44:13.894Z,7.68
2023-07-07T19:46:43.118Z,8.65
2023-07-07T19:51:47.461Z,8.63
2023-07-07T19:54:14.774Z,8.10
2023-07-07T19:56:42.034Z,7.72
2023-07-07T19:59:19.026Z,7.68
2023-07-07T20:02:21.595Z,7.25
2023-07-07T20:04:49.592Z,6.93
2023-07-07T20:07:16.516Z,8.15
2023-07-07T20:09:43.487Z,6.68
2023-07-07T20:12:13.215Z,7.38
2023-07-07T20:14:40.443Z,6.63
2023-07-07T20:17:11.471Z,7.28
2023-07-07T20:19:41.310Z,5.70
2023-07-07T20:22:13.515Z,5.78
2023-07-07T20:24:41.266Z,7.97
2023-07-07T20:27:12.808Z,5.53
2023-07-07T20:29:39.828Z,5.32
2023-07-07T20:32:15.364Z,5.75
2023-07-07T20:34:42.355Z,5.43
2023-07-07T20:37:13.426Z,5.80
2023-07-07T20:39:40.433Z,10.38
2023-07-07T20:42:15.512Z,7.13
2023-07-07T20:44:43.174Z,8.68
2023-07-07T20:47:12.077Z,5.45
2023-07-07T20:49:39.057Z,5.32
2023-07-07T20:52:14.002Z,7.90
2023-07-07T20:54:41.022Z,7.43
2023-07-07T20:57:18.986Z,5.65
2023-07-07T20:59:47.154Z,5.53
2023-07-07T21:02:14.753Z,4.75
2023-07-07T21:04:41.736Z,5.28
2023-07-07T21:07:15.046Z,6.70
2023-07-07T21:09:42.513Z,5.82
2023-07-07T21:12:10.192Z,5.68
2023-07-07T21:14:37.200Z,5.72
2023-07-07T21:17:04.278Z,6.28
2023-07-07T21:19:31.278Z,5.65
2023-07-07T21:21:58.232Z,7.35
2023-07-07T21:24:25.133Z,5.65
2023-07-07T21:26:52.063Z,5.60
2023-07-07T21:29:19.043Z,6.18
2023-07-07T21:31:46.054Z,6.28
2023-07-07T21:34:13.658Z,6.43
2023-07-07T21:36:41.917Z,6.80
2023-07-07T21:39:30.782Z,7.00
2023-07-07T21:44:30.094Z,6.43
2023-07-07T21:46:57.046Z,5.72
2023-07-07T21:49:23.957Z,6.68
2023-07-07T21:51:51.059Z,5.70
2023-07-07T21:54:18.050Z,4.70
2023-07-07T21:56:45.105Z,4.78
2023-07-07T21:59:23.387Z,8.45
2023-07-07T22:01:52.357Z,5.88
2023-07-07T22:04:22.715Z,5.38
2023-07-07T22:06:50.570Z,5.57
2023-07-07T22:09:19.067Z,5.63
2023-07-07T22:11:46.593Z,5.50
2023-07-07T22:14:13.623Z,5.25
2023-07-07T22:16:40.876Z,6.78
2023-07-07T22:19:12.952Z,7.00
2023-07-07T22:21:39.985Z,6.20
2023-07-07T22:24:06.940Z,5.65
2023-07-07T22:26:33.873Z,5.85
2023-07-07T22:29:01.919Z,6.28
2023-07-07T22:31:28.928Z,5.60
2023-07-07T22:33:55.893Z,5.45
2023-07-07T22:36:26.432Z,6.05
2023-07-07T22:38:53.360Z,5.90
2023-07-07T22:41:23.581Z,6.10
2023-07-07T22:43:51.147Z,5.75
2023-07-07T22:46:21.676Z,5.45
2023-07-07T22:48:49.124Z,5.28
2023-07-07T22:51:16.853Z,6.50
2023-07-07T22:53:45.316Z,5.38
2023-07-07T22:56:30.673Z,5.95
2023-07-07T22:58:59.610Z,5.50
2023-07-07T23:01:29.388Z,5.43
2023-07-07T23:04:07.977Z,5.68
2023-07-07T23:06:36.165Z,6.28
2023-07-07T23:09:38.031Z,5.30
2023-07-07T23:14:47.539Z,6.95
2023-07-07T23:17:27.859Z,5.60
2023-07-07T23:19:59.096Z,5.78
2023-07-07T23:22:37.075Z,6.20
2023-07-07T23:25:08.031Z,5.13
2023-07-07T23:27:41.880Z,5.72
2023-07-07T23:30:08.737Z,6.50
2023-07-07T23:32:44.301Z,5.22
2023-07-07T23:35:11.687Z,5.15
2023-07-07T23:37:39.656Z,5.15
2023-07-07T23:40:21.618Z,4.68
2023-07-07T23:42:48.678Z,6.50
2023-07-07T23:45:15.673Z,8.27
2023-07-07T23:47:47.928Z,5.72
2023-07-07T23:50:49.158Z,5.10
2023-07-07T23:53:17.442Z,5.75
2023-07-07T23:55:44.762Z,5.10
2023-07-07T23:58:19.865Z,5.97
